Accueil
METAR-TAF:

METAR-TAF

Aéroports :

Boscombe Down, Angleterre

latitude: 51-10N, longitude: 001-45W, altitude: 124 m

Observation

Le bulletin a été fait il y a 59 minutes, à 00:50 UTC
Vent 11 kt de sud-ouest
Température 16°C
Humidité 82%
Pression 1016 hPa
Visibilité 10 km ou plus

METAR: EGDM 240050Z AUTO 23011KT 9999 OVC011/// 16/13 Q1016

Heure: 02:49 (01:49 UTC)

Prévision

Le bulletin a été fait il y a 15 heures et 12 minutes, à 10:37 UTC
Prévision valable du 23 à 12 UTC au 23 à 17 UTC
Vent 12 kt de ouest/sud-ouest
Visibilité 10 km ou plus
Nuages fragmentés à une hauteur de 3000 ft
Probabilité 30% :
Temporairement
du 23 à 12 UTC au 23 à 17 UTC
Vent 15 kt de ouest/sud-ouest avec des rafales jusqu'à 25 kt

TAF: EGDM 231037Z 2312/2317 25012KT 9999 BKN030 PROB30 TEMPO 2312/2317 25015G25KT

Observations et prévisions météorologiques de plus de 4000 aéroports (messages METAR et TAF).

Les stations disponibles sont représentées par des disques jaunes et rouges sur la carte.

Passer la souris dessus pour voir le nom de la station.

Cliquer dessus pour voir les observations et prévisions météorologiques.

Pour changer de carte: cliquez sur les boutons verts avec une croix noire pour zoomer, sur le bouton vert avec un tiret pour effectuer un zoom arrière, ou sur les flèches vertes pour les cartes adjacentes.


METAR-TAF: